Terminal Aerodrome Forecast
Issued by NWS

Home | Current Version | Previous Version | Text Only | Print | Product List | Glossary On
Versions: 1 2 3 4 5 6 7 8 9 10 11 12 13 14 15 16 17 18 19
000
FTUS45 KLKN 250000 AAA
TAFELY
TAF AMD
KELY 250016Z 2500/2524 27010G20KT P6SM SCT070 OVC120
     FM250200 18009KT P6SM SCT070 OVC120
     FM251100 19010G20KT P6SM VCSH SCT060 OVC090
     FM251700 20014G24KT P6SM -SHRA VCTS SCT040CB OVC080=

USA.gov is the U.S. government's official web portal to all federal, state and local government web resources and services.